Meteorología y climatología de Navarra
Datos de la estación - Meteo Navarra

Estación de Carrascal GN

Altitud 568 m.


Datos desde el 23/05/2020 hasta el 24/05/2020 en horario solar
Los datos son PROVISIONALES

Anterior Página 1 de 1 Siguiente Descargar: Formato para Excel 2000 o superior   Formato csv   Formato para OpenOffice Calc
Fecha Temperatura Humedad relativa Radiación global Insolación Precipitación Vel. viento 10 m Vel. viento 10 m Dir. viento 10 m
ºC % W/m² s l/m² m/s km/h º
23/05/2020 0:00 14.8 90 0.0 0 0.0 10.6 38.0 35
23/05/2020 0:10 14.8 90 0.0 0 0.0 10.9 39.3 36
23/05/2020 0:20 14.6 90 0.0 0 0.0 10.3 36.9 33
23/05/2020 0:30 14.6 90 0.0 0 0.0 11.0 39.6 34
23/05/2020 0:40 14.6 90 0.0 0 0.0 10.9 39.2 36
23/05/2020 0:50 14.4 90 0.0 0 0.0 10.6 38.1 31
23/05/2020 1:00 14.5 90 0.0 0 0.0 10.3 37.2 33
23/05/2020 1:10 14.4 90 0.0 0 0.0 9.8 35.3 31
23/05/2020 1:20 14.5 90 0.0 0 0.0 9.6 34.5 35
23/05/2020 1:30 14.6 89 0.0 0 0.0 10.0 36.0 33
23/05/2020 1:40 14.5 89 0.0 0 0.0 9.5 34.0 34
23/05/2020 1:50 14.4 90 0.0 0 0.0 10.3 37.0 39
23/05/2020 2:00 14.4 90 0.0 0 0.0 10.1 36.2 44
23/05/2020 2:10 14.2 90 0.0 0 0.0 9.8 35.1 39
23/05/2020 2:20 14.3 90 0.0 0 0.0 9.9 35.5 36
23/05/2020 2:30 14.3 89 0.0 0 0.0 9.7 35.1 36
23/05/2020 2:40 14.2 90 0.0 0 0.0 9.6 34.6 37
23/05/2020 2:50 14.2 89 0.0 0 0.0 9.8 35.1 34
23/05/2020 3:00 14.2 89 0.0 0 0.0 9.3 33.6 32
23/05/2020 3:10 14.4 89 0.0 0 0.0 9.9 35.7 30
23/05/2020 3:20 14.2 88 0.0 0 0.0 9.6 34.5 29
23/05/2020 3:30 14.1 89 0.0 0 0.0 9.0 32.3 31
23/05/2020 3:40 14.1 89 0.0 0 0.0 9.6 34.4 34
23/05/2020 3:50 14.2 89 0.0 0 0.0 9.4 34.0 34
23/05/2020 4:00 14.2 89 0.0 0 0.0 9.9 35.5 36
23/05/2020 4:10 14.1 90 0.0 0 0.0 9.2 33.0 38
23/05/2020 4:20 14.0 91 0.0 0 0.0 8.9 32.2 38
23/05/2020 4:30 14.1 90 0.0 0 0.0 9.1 32.8 41
23/05/2020 4:40 14.2 90 0.0 0 0.0 8.3 30.0 39
23/05/2020 4:50 14.2 90 0.0 0 0.0 8.5 30.5 29
23/05/2020 5:00 14.4 90 7.3 0 0.0 8.4 30.2 37
23/05/2020 5:10 14.3 90 24.0 0 0.0 8.5 30.4 37
23/05/2020 5:20 14.3 90 29.9 0 0.0 8.1 29.0 27
23/05/2020 5:30 14.3 89 41.3 0 0.0 8.8 31.7 22
23/05/2020 5:40 14.5 89 48.5 0 0.0 8.7 31.3 18
23/05/2020 5:50 14.4 89 51.8 0 0.0 8.0 28.7 24
23/05/2020 6:00 14.4 89 68.4 0 0.0 7.5 26.8 28
23/05/2020 6:10 14.4 89 75.8 0 0.0 8.0 28.8 27
23/05/2020 6:20 14.6 89 94.9 0 0.0 8.2 29.6 20
23/05/2020 6:30 14.6 88 104.8 0 0.0 8.4 30.1 20
23/05/2020 6:40 14.7 88 111.1 0 0.0 8.4 30.3 20
23/05/2020 6:50 14.8 87 111.0 0 0.0 8.2 29.4 20
23/05/2020 7:00 14.9 87 126.5 0 0.0 8.7 31.1 16
23/05/2020 7:10 15.1 86 126.9 0 0.0 8.8 31.6 20
23/05/2020 7:20 15.0 86 117.8 0 0.0 8.7 31.3 18
23/05/2020 7:30 15.1 86 151.6 0 0.0 9.1 32.9 13
23/05/2020 7:40 15.4 85 185.7 82 0.0 9.5 34.1 13
23/05/2020 7:50 15.9 83 392.8 386 0.0 8.7 31.2 13
23/05/2020 8:00 16.3 81 393.0 480 0.0 9.0 32.4 13
23/05/2020 8:10 16.6 81 525.3 544 0.0 8.6 31.0 14
23/05/2020 8:20 17.1 79 537.0 600 0.0 9.6 34.5 10
23/05/2020 8:30 16.8 80 473.1 596 0.0 9.6 34.5 12
23/05/2020 8:40 16.6 80 431.7 536 0.0 10.1 36.4 11
23/05/2020 8:50 17.2 79 612.5 600 0.0 9.8 35.3 9
23/05/2020 9:00 17.2 78 615.8 584 0.0 10.8 39.0 9
23/05/2020 9:10 17.7 75 668.6 560 0.0 11.3 40.8 11
23/05/2020 9:20 17.0 77 493.7 242 0.0 11.8 42.5 8
23/05/2020 9:30 17.7 76 659.0 504 0.0 10.6 38.2 11
23/05/2020 9:40 17.8 77 812.0 582 0.0 10.9 39.3 11
23/05/2020 9:50 17.5 77 516.7 312 0.0 11.6 41.9 10
23/05/2020 10:00 16.3 78 310.7 0 0.0 12.0 43.3 13
23/05/2020 10:10 15.8 77 318.4 0 0.0 12.1 43.7 15
23/05/2020 10:20 15.7 80 323.1 0 0.0 11.5 41.4 12
23/05/2020 10:30 15.7 80 425.7 154 0.0 11.4 41.1 14
23/05/2020 10:40 16.7 76 967.0 596 0.0 12.3 44.3 14
23/05/2020 10:50 17.1 74 923.0 600 0.0 12.8 46.0 11
23/05/2020 11:00 17.0 74 1003.0 600 0.0 14.1 50.7 8
23/05/2020 11:10 16.8 74 930.0 600 0.0 13.8 49.8 9
23/05/2020 11:20 16.6 74 903.0 600 0.0 13.8 49.8 6
23/05/2020 11:30 16.5 73 999.0 600 0.0 14.1 50.7 8
23/05/2020 11:40 17.0 70 1045.0 600 0.0 13.1 47.1 14
23/05/2020 11:50 17.0 71 1031.0 600 0.0 12.9 46.5 18
23/05/2020 12:00 16.8 70 986.0 594 0.0 13.3 47.7 17
23/05/2020 12:10 16.4 71 786.9 600 0.0 13.9 50.0 11
23/05/2020 12:20 15.8 72 603.6 600 0.0 14.2 51.1 10
23/05/2020 12:30 15.9 72 688.1 600 0.0 14.2 51.3 10
23/05/2020 12:40 15.7 71 707.5 600 0.0 14.3 51.5 14
23/05/2020 12:50 16.2 71 884.0 600 0.0 13.7 49.4 10
23/05/2020 13:00 16.6 69 917.0 600 0.0 13.8 49.8 11
23/05/2020 13:10 16.4 69 911.0 600 0.0 13.3 47.7 11
23/05/2020 13:20 16.8 69 967.0 600 0.0 11.7 42.1 20
23/05/2020 13:30 17.0 70 950.0 600 0.0 12.6 45.5 12
23/05/2020 13:40 16.6 71 906.0 600 0.0 13.2 47.4 10
23/05/2020 13:50 15.4 74 506.6 424 0.0 15.2 54.7 6
23/05/2020 14:00 14.7 76 528.6 408 0.0 14.7 52.7 9
23/05/2020 14:10 14.5 75 612.0 600 0.0 16.1 58.0 7
23/05/2020 14:20 14.1 76 776.9 600 0.0 15.8 56.9 5
23/05/2020 14:30 14.2 76 698.1 446 0.0 16.0 57.6 8
23/05/2020 14:40 14.4 75 797.1 600 0.0 15.8 56.8 7
23/05/2020 14:50 14.5 74 794.2 600 0.0 14.9 53.7 12
23/05/2020 15:00 14.5 74 768.0 600 0.0 15.4 55.5 13
23/05/2020 15:10 14.7 73 743.8 600 0.0 14.5 52.2 12
23/05/2020 15:20 14.6 73 703.1 600 0.0 14.7 53.0 11
23/05/2020 15:30 14.8 72 699.2 600 0.0 14.7 53.0 12
23/05/2020 15:40 15.0 72 673.5 600 0.0 14.7 52.9 13
23/05/2020 15:50 14.8 73 646.9 600 0.0 15.0 54.1 14
23/05/2020 16:00 14.6 74 612.7 600 0.0 15.3 54.9 12
23/05/2020 16:10 14.6 73 581.6 600 0.0 14.2 51.0 17
23/05/2020 16:20 14.7 72 558.4 600 0.0 14.2 51.3 13
23/05/2020 16:30 14.6 72 522.8 600 0.0 14.8 53.3 12
23/05/2020 16:40 14.4 72 488.6 600 0.0 15.9 57.3 11
23/05/2020 16:50 14.5 72 455.7 600 0.0 14.9 53.6 14
23/05/2020 17:00 14.3 73 420.9 600 0.0 13.9 50.1 14
23/05/2020 17:10 14.2 73 389.7 600 0.0 14.1 50.8 14
23/05/2020 17:20 13.9 74 360.8 600 0.0 15.0 53.9 14
23/05/2020 17:30 13.5 77 330.2 600 0.0 14.6 52.4 14
23/05/2020 17:40 13.3 78 300.5 600 0.0 15.3 54.9 12
23/05/2020 17:50 13.0 80 272.1 600 0.0 14.9 53.6 14
23/05/2020 18:00 13.0 81 243.8 600 0.0 15.0 54.0 15
23/05/2020 18:10 12.8 81 211.0 600 0.0 15.5 55.9 16
23/05/2020 18:20 12.8 80 181.7 600 0.0 15.3 55.2 14
23/05/2020 18:30 12.7 80 154.4 600 0.0 15.2 54.6 16
23/05/2020 18:40 12.8 81 141.5 600 0.0 14.8 53.1 18
23/05/2020 18:50 12.6 81 126.6 600 0.0 14.2 51.1 21
23/05/2020 19:00 12.5 80 92.6 600 0.0 15.9 57.3 20
23/05/2020 19:10 12.6 81 59.8 600 0.0 15.7 56.6 19
23/05/2020 19:20 12.3 81 31.6 480 0.0 14.1 50.8 23
23/05/2020 19:30 12.2 82 4.2 0 0.0 15.3 54.9 21
23/05/2020 19:40 11.9 83 0.0 0 0.0 14.9 53.7 22
23/05/2020 19:50 11.7 84 0.0 0 0.0 14.3 51.4 19
23/05/2020 20:00 11.7 84 0.0 0 0.0 14.7 52.9 21
23/05/2020 20:10 11.7 84 0.0 0 0.0 14.4 51.7 21
23/05/2020 20:20 11.7 84 0.0 0 0.0 14.4 51.9 18
23/05/2020 20:30 11.7 84 0.0 0 0.0 14.4 51.7 17
23/05/2020 20:40 11.5 85 0.0 0 0.0 14.8 53.1 15
23/05/2020 20:50 11.4 86 0.0 0 0.0 13.5 48.5 15
23/05/2020 21:00 11.2 87 0.0 0 0.0 13.1 47.2 16
23/05/2020 21:10 11.2 87 0.0 0 0.0 12.6 45.2 20
23/05/2020 21:20 11.2 87 0.0 0 0.0 13.0 46.9 17
23/05/2020 21:30 11.1 86 0.0 0 0.0 12.9 46.5 17
23/05/2020 21:40 11.1 86 0.0 0 0.0 12.2 44.0 17
23/05/2020 21:50 11.1 85 0.0 0 0.0 11.8 42.3 20
23/05/2020 22:00 11.2 85 0.0 0 0.0 11.6 41.6 17
23/05/2020 22:10 11.1 85 0.0 0 0.0 12.0 43.3 15
23/05/2020 22:20 11.1 84 0.0 0 0.0 11.0 39.5 17
23/05/2020 22:30 11.1 84 0.0 0 0.0 11.9 42.9 14
23/05/2020 22:40 11.0 84 0.0 0 0.0 12.3 44.4 14
23/05/2020 22:50 11.0 84 0.0 0 0.0 12.9 46.6 11
23/05/2020 23:00 11.1 83 0.0 0 0.0 11.3 40.8 13
23/05/2020 23:10 11.0 83 0.0 0 0.0 9.1 32.9 17
23/05/2020 23:20 11.0 83 0.0 0 0.0 10.6 38.1 13
23/05/2020 23:30 11.0 83 0.0 0 0.0 11.4 41.2 14
23/05/2020 23:40 11.0 83 0.0 0 0.0 12.1 43.6 12
23/05/2020 23:50 11.0 83 0.0 0 0.0 11.3 40.6 13
Anterior Página 1 de 1 Siguiente

NOTA: Tipo de datos según el color:
   - Valores diarios o 10 minutos correctos
   - Valores diarios calculados a partir de un número de datos 10 minutos menor que 144 y mayor que 120, o de un número de datos semihorarios menor que 48 y mayor que 40 (caso de las estaciones de INTIA y del Ministerio)
   - Valores diez minutos estimados


Contacto        Enlaces        Aviso legal